sensor_id;sensor_type;location;lat;lon;timestamp;P1;durP1;ratioP1;P2;durP2;ratioP2
20065;SDS011;10193;48.884;9.182;2022-09-09T00:00:18;1.85;;;1.30;;
20065;SDS011;10193;48.884;9.182;2022-09-09T00:02:48;2.50;;;1.40;;
20065;SDS011;10193;48.884;9.182;2022-09-09T00:05:25;1.40;;;1.02;;
20065;SDS011;10193;48.884;9.182;2022-09-09T00:07:58;1.50;;;1.08;;
20065;SDS011;10193;48.884;9.182;2022-09-09T00:10:29;1.52;;;1.10;;
20065;SDS011;10193;48.884;9.182;2022-09-09T00:13:01;1.80;;;1.40;;
20065;SDS011;10193;48.884;9.182;2022-09-09T00:15:36;1.15;;;1.10;;
20065;SDS011;10193;48.884;9.182;2022-09-09T00:18:13;1.45;;;1.05;;
20065;SDS011;10193;48.884;9.182;2022-09-09T00:20:47;1.77;;;1.20;;
20065;SDS011;10193;48.884;9.182;2022-09-09T00:23:24;1.95;;;1.30;;
20065;SDS011;10193;48.884;9.182;2022-09-09T00:25:54;1.67;;;1.10;;
20065;SDS011;10193;48.884;9.182;2022-09-09T00:28:28;2.72;;;1.42;;
20065;SDS011;10193;48.884;9.182;2022-09-09T00:30:58;1.45;;;1.30;;
20065;SDS011;10193;48.884;9.182;2022-09-09T00:33:29;2.08;;;1.20;;
20065;SDS011;10193;48.884;9.182;2022-09-09T00:35:57;2.42;;;1.20;;
20065;SDS011;10193;48.884;9.182;2022-09-09T00:38:28;2.30;;;1.10;;
20065;SDS011;10193;48.884;9.182;2022-09-09T00:41:01;1.00;;;0.93;;
20065;SDS011;10193;48.884;9.182;2022-09-09T00:43:35;2.15;;;1.13;;
20065;SDS011;10193;48.884;9.182;2022-09-09T00:46:10;1.15;;;1.02;;
20065;SDS011;10193;48.884;9.182;2022-09-09T00:48:52;1.83;;;1.08;;
20065;SDS011;10193;48.884;9.182;2022-09-09T00:51:29;2.05;;;1.20;;
20065;SDS011;10193;48.884;9.182;2022-09-09T00:54:19;1.30;;;1.10;;
20065;SDS011;10193;48.884;9.182;2022-09-09T00:57:00;1.45;;;0.95;;
20065;SDS011;10193;48.884;9.182;2022-09-09T00:59:40;1.08;;;0.98;;
20065;SDS011;10193;48.884;9.182;2022-09-09T01:02:15;1.08;;;0.70;;
20065;SDS011;10193;48.884;9.182;2022-09-09T01:04:49;1.63;;;0.98;;
20065;SDS011;10193;48.884;9.182;2022-09-09T01:07:17;0.90;;;0.90;;
20065;SDS011;10193;48.884;9.182;2022-09-09T01:09:47;1.05;;;0.77;;
20065;SDS011;10193;48.884;9.182;2022-09-09T01:12:23;2.25;;;1.00;;
20065;SDS011;10193;48.884;9.182;2022-09-09T01:14:53;1.17;;;1.08;;
20065;SDS011;10193;48.884;9.182;2022-09-09T01:17:29;0.98;;;0.75;;
20065;SDS011;10193;48.884;9.182;2022-09-09T01:20:03;0.95;;;0.80;;
20065;SDS011;10193;48.884;9.182;2022-09-09T01:22:35;2.38;;;0.90;;
20065;SDS011;10193;48.884;9.182;2022-09-09T01:25:13;0.80;;;0.80;;
20065;SDS011;10193;48.884;9.182;2022-09-09T01:27:49;1.10;;;0.88;;
20065;SDS011;10193;48.884;9.182;2022-09-09T01:30:19;0.77;;;0.70;;
20065;SDS011;10193;48.884;9.182;2022-09-09T01:32:48;1.67;;;0.90;;
20065;SDS011;10193;48.884;9.182;2022-09-09T01:35:21;1.92;;;0.90;;
20065;SDS011;10193;48.884;9.182;2022-09-09T01:37:57;1.65;;;1.00;;
20065;SDS011;10193;48.884;9.182;2022-09-09T01:40:25;2.33;;;1.10;;
20065;SDS011;10193;48.884;9.182;2022-09-09T01:42:53;1.38;;;0.90;;
20065;SDS011;10193;48.884;9.182;2022-09-09T01:45:21;1.13;;;0.75;;
20065;SDS011;10193;48.884;9.182;2022-09-09T01:47:50;1.50;;;0.80;;
20065;SDS011;10193;48.884;9.182;2022-09-09T01:50:18;0.82;;;0.65;;
20065;SDS011;10193;48.884;9.182;2022-09-09T01:52:46;1.38;;;0.90;;
20065;SDS011;10193;48.884;9.182;2022-09-09T01:55:16;0.93;;;0.75;;
20065;SDS011;10193;48.884;9.182;2022-09-09T01:57:48;1.55;;;0.93;;
20065;SDS011;10193;48.884;9.182;2022-09-09T02:00:23;0.98;;;0.88;;
20065;SDS011;10193;48.884;9.182;2022-09-09T02:02:55;1.02;;;0.90;;
20065;SDS011;10193;48.884;9.182;2022-09-09T02:05:33;1.42;;;0.90;;
20065;SDS011;10193;48.884;9.182;2022-09-09T02:08:05;0.80;;;0.80;;
20065;SDS011;10193;48.884;9.182;2022-09-09T02:10:36;1.88;;;0.80;;
20065;SDS011;10193;48.884;9.182;2022-09-09T02:13:09;1.90;;;0.90;;
20065;SDS011;10193;48.884;9.182;2022-09-09T02:15:42;2.38;;;0.90;;
20065;SDS011;10193;48.884;9.182;2022-09-09T02:18:15;1.10;;;0.90;;
20065;SDS011;10193;48.884;9.182;2022-09-09T02:20:47;1.08;;;0.82;;
20065;SDS011;10193;48.884;9.182;2022-09-09T02:23:14;0.80;;;0.80;;
20065;SDS011;10193;48.884;9.182;2022-09-09T02:25:42;1.00;;;0.82;;
20065;SDS011;10193;48.884;9.182;2022-09-09T02:28:11;2.20;;;0.82;;
20065;SDS011;10193;48.884;9.182;2022-09-09T02:30:42;2.47;;;0.90;;
20065;SDS011;10193;48.884;9.182;2022-09-09T02:33:12;1.25;;;0.88;;
20065;SDS011;10193;48.884;9.182;2022-09-09T02:35:40;1.10;;;0.90;;
20065;SDS011;10193;48.884;9.182;2022-09-09T02:38:10;0.90;;;0.63;;
20065;SDS011;10193;48.884;9.182;2022-09-09T02:40:41;1.88;;;0.63;;
20065;SDS011;10193;48.884;9.182;2022-09-09T02:43:08;2.38;;;0.57;;
20065;SDS011;10193;48.884;9.182;2022-09-09T02:45:36;0.40;;;0.40;;
20065;SDS011;10193;48.884;9.182;2022-09-09T02:48:11;1.33;;;0.55;;
20065;SDS011;10193;48.884;9.182;2022-09-09T02:50:45;0.63;;;0.50;;
20065;SDS011;10193;48.884;9.182;2022-09-09T02:53:22;0.50;;;0.50;;
20065;SDS011;10193;48.884;9.182;2022-09-09T02:55:55;0.60;;;0.60;;
20065;SDS011;10193;48.884;9.182;2022-09-09T02:58:26;0.70;;;0.50;;
20065;SDS011;10193;48.884;9.182;2022-09-09T03:00:53;0.57;;;0.57;;
20065;SDS011;10193;48.884;9.182;2022-09-09T03:03:24;0.95;;;0.50;;
20065;SDS011;10193;48.884;9.182;2022-09-09T03:05:51;1.05;;;0.68;;
20065;SDS011;10193;48.884;9.182;2022-09-09T03:08:18;1.02;;;0.90;;
20065;SDS011;10193;48.884;9.182;2022-09-09T03:10:45;1.40;;;0.60;;
20065;SDS011;10193;48.884;9.182;2022-09-09T03:13:12;0.68;;;0.60;;
20065;SDS011;10193;48.884;9.182;2022-09-09T03:15:40;1.17;;;0.70;;
20065;SDS011;10193;48.884;9.182;2022-09-09T03:18:07;1.10;;;0.57;;
20065;SDS011;10193;48.884;9.182;2022-09-09T03:20:35;1.52;;;0.52;;
20065;SDS011;10193;48.884;9.182;2022-09-09T03:23:02;0.93;;;0.80;;
20065;SDS011;10193;48.884;9.182;2022-09-09T03:25:29;0.70;;;0.47;;
20065;SDS011;10193;48.884;9.182;2022-09-09T03:27:57;0.77;;;0.60;;
20065;SDS011;10193;48.884;9.182;2022-09-09T03:30:24;0.85;;;0.60;;
20065;SDS011;10193;48.884;9.182;2022-09-09T03:32:52;0.70;;;0.70;;
20065;SDS011;10193;48.884;9.182;2022-09-09T03:35:20;1.55;;;0.70;;
20065;SDS011;10193;48.884;9.182;2022-09-09T03:37:49;1.23;;;0.75;;
20065;SDS011;10193;48.884;9.182;2022-09-09T03:40:15;0.70;;;0.70;;
20065;SDS011;10193;48.884;9.182;2022-09-09T03:42:43;1.02;;;0.82;;
20065;SDS011;10193;48.884;9.182;2022-09-09T03:45:10;1.33;;;1.10;;
20065;SDS011;10193;48.884;9.182;2022-09-09T03:47:36;1.58;;;1.38;;
20065;SDS011;10193;48.884;9.182;2022-09-09T03:50:04;1.38;;;1.00;;
20065;SDS011;10193;48.884;9.182;2022-09-09T03:52:34;1.25;;;0.98;;
20065;SDS011;10193;48.884;9.182;2022-09-09T03:55:03;1.98;;;0.98;;
20065;SDS011;10193;48.884;9.182;2022-09-09T03:57:30;1.20;;;0.95;;
20065;SDS011;10193;48.884;9.182;2022-09-09T04:00:00;1.42;;;1.33;;
20065;SDS011;10193;48.884;9.182;2022-09-09T04:02:27;1.27;;;1.02;;
20065;SDS011;10193;48.884;9.182;2022-09-09T04:04:54;1.30;;;1.00;;
20065;SDS011;10193;48.884;9.182;2022-09-09T04:07:21;1.00;;;0.88;;
20065;SDS011;10193;48.884;9.182;2022-09-09T04:09:48;2.10;;;0.90;;
20065;SDS011;10193;48.884;9.182;2022-09-09T04:12:16;1.38;;;0.95;;
20065;SDS011;10193;48.884;9.182;2022-09-09T04:14:43;1.85;;;0.98;;
20065;SDS011;10193;48.884;9.182;2022-09-09T04:17:10;1.73;;;1.20;;
20065;SDS011;10193;48.884;9.182;2022-09-09T04:19:37;1.17;;;1.00;;
20065;SDS011;10193;48.884;9.182;2022-09-09T04:22:04;1.65;;;1.02;;
20065;SDS011;10193;48.884;9.182;2022-09-09T04:24:30;1.75;;;1.20;;
20065;SDS011;10193;48.884;9.182;2022-09-09T04:26:57;1.50;;;1.10;;
20065;SDS011;10193;48.884;9.182;2022-09-09T04:29:25;1.90;;;1.20;;
20065;SDS011;10193;48.884;9.182;2022-09-09T04:31:52;1.95;;;1.13;;
20065;SDS011;10193;48.884;9.182;2022-09-09T04:34:19;1.02;;;0.90;;
20065;SDS011;10193;48.884;9.182;2022-09-09T04:36:46;2.05;;;1.20;;
20065;SDS011;10193;48.884;9.182;2022-09-09T04:39:13;1.38;;;1.25;;
20065;SDS011;10193;48.884;9.182;2022-09-09T04:41:40;1.38;;;1.27;;
20065;SDS011;10193;48.884;9.182;2022-09-09T04:44:07;1.10;;;1.00;;
20065;SDS011;10193;48.884;9.182;2022-09-09T04:46:36;1.20;;;1.08;;
20065;SDS011;10193;48.884;9.182;2022-09-09T04:49:03;1.90;;;1.23;;
20065;SDS011;10193;48.884;9.182;2022-09-09T04:51:30;1.20;;;1.10;;
20065;SDS011;10193;48.884;9.182;2022-09-09T04:53:57;2.10;;;1.25;;
20065;SDS011;10193;48.884;9.182;2022-09-09T04:56:24;1.67;;;1.15;;
20065;SDS011;10193;48.884;9.182;2022-09-09T04:58:52;1.30;;;1.08;;
20065;SDS011;10193;48.884;9.182;2022-09-09T05:01:20;1.05;;;0.82;;
20065;SDS011;10193;48.884;9.182;2022-09-09T05:03:50;1.13;;;1.02;;
20065;SDS011;10193;48.884;9.182;2022-09-09T05:06:18;1.65;;;1.10;;
20065;SDS011;10193;48.884;9.182;2022-09-09T05:08:47;1.52;;;1.30;;
20065;SDS011;10193;48.884;9.182;2022-09-09T05:11:17;2.00;;;1.30;;
20065;SDS011;10193;48.884;9.182;2022-09-09T05:13:48;1.27;;;1.00;;
20065;SDS011;10193;48.884;9.182;2022-09-09T05:16:16;1.25;;;1.15;;
20065;SDS011;10193;48.884;9.182;2022-09-09T05:18:43;1.92;;;0.95;;
20065;SDS011;10193;48.884;9.182;2022-09-09T05:21:12;1.35;;;1.20;;
20065;SDS011;10193;48.884;9.182;2022-09-09T05:23:41;1.92;;;1.10;;
20065;SDS011;10193;48.884;9.182;2022-09-09T05:26:09;1.80;;;1.10;;
20065;SDS011;10193;48.884;9.182;2022-09-09T05:28:39;1.92;;;1.05;;
20065;SDS011;10193;48.884;9.182;2022-09-09T05:31:06;1.20;;;1.10;;
20065;SDS011;10193;48.884;9.182;2022-09-09T05:33:36;1.10;;;1.00;;
20065;SDS011;10193;48.884;9.182;2022-09-09T05:36:06;1.83;;;1.27;;
20065;SDS011;10193;48.884;9.182;2022-09-09T05:38:37;2.78;;;1.15;;
20065;SDS011;10193;48.884;9.182;2022-09-09T05:41:04;1.13;;;0.98;;
20065;SDS011;10193;48.884;9.182;2022-09-09T05:43:32;1.45;;;1.08;;
20065;SDS011;10193;48.884;9.182;2022-09-09T05:46:01;2.35;;;1.13;;
20065;SDS011;10193;48.884;9.182;2022-09-09T05:48:30;0.88;;;0.88;;
20065;SDS011;10193;48.884;9.182;2022-09-09T05:50:58;2.00;;;1.10;;
20065;SDS011;10193;48.884;9.182;2022-09-09T05:53:25;1.88;;;1.38;;
20065;SDS011;10193;48.884;9.182;2022-09-09T05:55:59;1.10;;;1.00;;
20065;SDS011;10193;48.884;9.182;2022-09-09T05:58:28;1.85;;;1.10;;
20065;SDS011;10193;48.884;9.182;2022-09-09T06:01:00;1.10;;;0.93;;
20065;SDS011;10193;48.884;9.182;2022-09-09T06:03:28;1.25;;;0.95;;
20065;SDS011;10193;48.884;9.182;2022-09-09T06:05:58;1.00;;;0.90;;
20065;SDS011;10193;48.884;9.182;2022-09-09T06:08:25;1.90;;;1.02;;
20065;SDS011;10193;48.884;9.182;2022-09-09T06:10:52;1.30;;;0.90;;
20065;SDS011;10193;48.884;9.182;2022-09-09T06:13:21;1.30;;;1.17;;
20065;SDS011;10193;48.884;9.182;2022-09-09T06:15:49;1.10;;;1.00;;
20065;SDS011;10193;48.884;9.182;2022-09-09T06:18:17;1.02;;;0.85;;
20065;SDS011;10193;48.884;9.182;2022-09-09T06:20:52;1.10;;;1.00;;
20065;SDS011;10193;48.884;9.182;2022-09-09T06:23:20;1.30;;;0.95;;
20065;SDS011;10193;48.884;9.182;2022-09-09T06:25:47;1.23;;;1.05;;
20065;SDS011;10193;48.884;9.182;2022-09-09T06:28:14;1.30;;;1.10;;
20065;SDS011;10193;48.884;9.182;2022-09-09T06:30:42;1.27;;;1.00;;
20065;SDS011;10193;48.884;9.182;2022-09-09T06:33:09;2.13;;;0.93;;
20065;SDS011;10193;48.884;9.182;2022-09-09T06:35:36;1.67;;;1.15;;
20065;SDS011;10193;48.884;9.182;2022-09-09T06:38:03;1.17;;;1.08;;
20065;SDS011;10193;48.884;9.182;2022-09-09T06:40:30;1.35;;;1.00;;
20065;SDS011;10193;48.884;9.182;2022-09-09T06:42:59;0.95;;;0.90;;
20065;SDS011;10193;48.884;9.182;2022-09-09T06:45:26;1.13;;;0.90;;
20065;SDS011;10193;48.884;9.182;2022-09-09T06:47:55;0.85;;;0.82;;
20065;SDS011;10193;48.884;9.182;2022-09-09T06:50:22;1.65;;;1.20;;
20065;SDS011;10193;48.884;9.182;2022-09-09T06:52:49;2.60;;;1.10;;
20065;SDS011;10193;48.884;9.182;2022-09-09T06:55:16;1.65;;;1.05;;
20065;SDS011;10193;48.884;9.182;2022-09-09T06:57:44;1.27;;;0.93;;
20065;SDS011;10193;48.884;9.182;2022-09-09T07:00:12;2.17;;;1.08;;
20065;SDS011;10193;48.884;9.182;2022-09-09T07:02:39;1.10;;;0.95;;
20065;SDS011;10193;48.884;9.182;2022-09-09T07:05:08;1.52;;;0.90;;
20065;SDS011;10193;48.884;9.182;2022-09-09T07:07:35;1.10;;;0.73;;
20065;SDS011;10193;48.884;9.182;2022-09-09T07:10:03;0.70;;;0.70;;
20065;SDS011;10193;48.884;9.182;2022-09-09T07:12:30;0.88;;;0.47;;
20065;SDS011;10193;48.884;9.182;2022-09-09T07:14:57;1.33;;;0.60;;
20065;SDS011;10193;48.884;9.182;2022-09-09T07:17:24;0.40;;;0.40;;
20065;SDS011;10193;48.884;9.182;2022-09-09T07:19:51;0.90;;;0.60;;
20065;SDS011;10193;48.884;9.182;2022-09-09T07:22:19;0.63;;;0.50;;
20065;SDS011;10193;48.884;9.182;2022-09-09T07:24:46;1.13;;;0.77;;
20065;SDS011;10193;48.884;9.182;2022-09-09T07:27:14;1.45;;;0.52;;
20065;SDS011;10193;48.884;9.182;2022-09-09T07:29:41;0.93;;;0.80;;
20065;SDS011;10193;48.884;9.182;2022-09-09T07:32:08;0.82;;;0.70;;
20065;SDS011;10193;48.884;9.182;2022-09-09T07:34:35;1.55;;;0.60;;
20065;SDS011;10193;48.884;9.182;2022-09-09T07:37:01;0.80;;;0.80;;
20065;SDS011;10193;48.884;9.182;2022-09-09T07:39:30;1.35;;;0.90;;
20065;SDS011;10193;48.884;9.182;2022-09-09T07:41:56;1.75;;;0.90;;
20065;SDS011;10193;48.884;9.182;2022-09-09T07:44:24;0.88;;;0.75;;
20065;SDS011;10193;48.884;9.182;2022-09-09T07:46:51;0.70;;;0.60;;
20065;SDS011;10193;48.884;9.182;2022-09-09T07:49:19;0.85;;;0.60;;
20065;SDS011;10193;48.884;9.182;2022-09-09T07:51:46;0.98;;;0.60;;
20065;SDS011;10193;48.884;9.182;2022-09-09T07:54:15;2.00;;;0.70;;
20065;SDS011;10193;48.884;9.182;2022-09-09T07:56:46;0.82;;;0.82;;
20065;SDS011;10193;48.884;9.182;2022-09-09T07:59:14;0.85;;;0.70;;
20065;SDS011;10193;48.884;9.182;2022-09-09T08:01:42;0.70;;;0.70;;
20065;SDS011;10193;48.884;9.182;2022-09-09T08:04:11;0.68;;;0.68;;
20065;SDS011;10193;48.884;9.182;2022-09-09T08:06:40;0.80;;;0.60;;
20065;SDS011;10193;48.884;9.182;2022-09-09T08:09:09;0.50;;;0.50;;
20065;SDS011;10193;48.884;9.182;2022-09-09T08:11:36;0.73;;;0.65;;
20065;SDS011;10193;48.884;9.182;2022-09-09T08:14:06;0.52;;;0.52;;
20065;SDS011;10193;48.884;9.182;2022-09-09T08:16:34;1.48;;;0.60;;
20065;SDS011;10193;48.884;9.182;2022-09-09T08:19:03;1.85;;;0.70;;
20065;SDS011;10193;48.884;9.182;2022-09-09T08:21:32;0.75;;;0.50;;
20065;SDS011;10193;48.884;9.182;2022-09-09T08:24:01;1.38;;;0.70;;
20065;SDS011;10193;48.884;9.182;2022-09-09T08:26:30;0.60;;;0.60;;
20065;SDS011;10193;48.884;9.182;2022-09-09T08:28:59;1.30;;;0.75;;
20065;SDS011;10193;48.884;9.182;2022-09-09T08:31:30;0.82;;;0.80;;
20065;SDS011;10193;48.884;9.182;2022-09-09T08:33:59;1.02;;;0.80;;
20065;SDS011;10193;48.884;9.182;2022-09-09T08:36:27;1.52;;;0.70;;
20065;SDS011;10193;48.884;9.182;2022-09-09T08:38:55;1.98;;;0.70;;
20065;SDS011;10193;48.884;9.182;2022-09-09T08:41:38;2.22;;;0.68;;
20065;SDS011;10193;48.884;9.182;2022-09-09T08:44:19;0.68;;;0.50;;
20065;SDS011;10193;48.884;9.182;2022-09-09T08:46:57;0.45;;;0.45;;
20065;SDS011;10193;48.884;9.182;2022-09-09T08:49:35;0.70;;;0.50;;
20065;SDS011;10193;48.884;9.182;2022-09-09T08:52:15;1.02;;;0.50;;
20065;SDS011;10193;48.884;9.182;2022-09-09T08:54:46;0.43;;;0.40;;
20065;SDS011;10193;48.884;9.182;2022-09-09T08:57:14;1.10;;;0.50;;
20065;SDS011;10193;48.884;9.182;2022-09-09T08:59:46;0.45;;;0.30;;
20065;SDS011;10193;48.884;9.182;2022-09-09T09:02:17;0.98;;;0.60;;
20065;SDS011;10193;48.884;9.182;2022-09-09T09:04:52;0.65;;;0.45;;
20065;SDS011;10193;48.884;9.182;2022-09-09T09:07:32;2.20;;;0.52;;
20065;SDS011;10193;48.884;9.182;2022-09-09T09:10:10;1.48;;;0.60;;
20065;SDS011;10193;48.884;9.182;2022-09-09T09:12:45;0.82;;;0.50;;
20065;SDS011;10193;48.884;9.182;2022-09-09T09:15:14;1.52;;;1.42;;
20065;SDS011;10193;48.884;9.182;2022-09-09T09:17:47;0.88;;;0.43;;
20065;SDS011;10193;48.884;9.182;2022-09-09T09:20:15;0.50;;;0.35;;
20065;SDS011;10193;48.884;9.182;2022-09-09T09:22:47;0.73;;;0.50;;
20065;SDS011;10193;48.884;9.182;2022-09-09T09:25:17;0.75;;;0.50;;
20065;SDS011;10193;48.884;9.182;2022-09-09T09:27:48;1.35;;;0.50;;
20065;SDS011;10193;48.884;9.182;2022-09-09T09:30:20;2.55;;;0.70;;
20065;SDS011;10193;48.884;9.182;2022-09-09T09:32:51;1.00;;;0.57;;
20065;SDS011;10193;48.884;9.182;2022-09-09T09:35:20;3.00;;;0.70;;
20065;SDS011;10193;48.884;9.182;2022-09-09T09:37:48;1.85;;;0.63;;
20065;SDS011;10193;48.884;9.182;2022-09-09T09:40:16;1.48;;;0.60;;
20065;SDS011;10193;48.884;9.182;2022-09-09T09:42:48;1.95;;;0.68;;
20065;SDS011;10193;48.884;9.182;2022-09-09T09:45:20;0.70;;;0.60;;
20065;SDS011;10193;48.884;9.182;2022-09-09T09:48:01;1.95;;;0.70;;
20065;SDS011;10193;48.884;9.182;2022-09-09T09:50:29;1.58;;;0.70;;
20065;SDS011;10193;48.884;9.182;2022-09-09T09:52:58;1.30;;;0.70;;
20065;SDS011;10193;48.884;9.182;2022-09-09T09:55:26;1.80;;;0.60;;
20065;SDS011;10193;48.884;9.182;2022-09-09T09:58:00;0.95;;;0.70;;
20065;SDS011;10193;48.884;9.182;2022-09-09T10:00:28;0.88;;;0.75;;
20065;SDS011;10193;48.884;9.182;2022-09-09T10:02:55;0.60;;;0.60;;
20065;SDS011;10193;48.884;9.182;2022-09-09T10:05:24;0.95;;;0.70;;
20065;SDS011;10193;48.884;9.182;2022-09-09T10:08:01;2.08;;;0.80;;
20065;SDS011;10193;48.884;9.182;2022-09-09T10:10:34;1.00;;;0.68;;
20065;SDS011;10193;48.884;9.182;2022-09-09T10:13:09;0.75;;;0.45;;
20065;SDS011;10193;48.884;9.182;2022-09-09T10:15:43;1.05;;;0.63;;
20065;SDS011;10193;48.884;9.182;2022-09-09T10:18:22;1.33;;;0.73;;
20065;SDS011;10193;48.884;9.182;2022-09-09T10:21:03;0.90;;;0.50;;
20065;SDS011;10193;48.884;9.182;2022-09-09T10:23:46;0.90;;;0.50;;
20065;SDS011;10193;48.884;9.182;2022-09-09T10:26:40;0.40;;;0.40;;
20065;SDS011;10193;48.884;9.182;2022-09-09T10:29:23;0.73;;;0.57;;
20065;SDS011;10193;48.884;9.182;2022-09-09T10:31:59;1.25;;;0.50;;
20065;SDS011;10193;48.884;9.182;2022-09-09T10:37:35;1.00;;;0.50;;
20065;SDS011;10193;48.884;9.182;2022-09-09T10:40:17;0.80;;;0.43;;
20065;SDS011;10193;48.884;9.182;2022-09-09T10:42:51;0.85;;;0.55;;
20065;SDS011;10193;48.884;9.182;2022-09-09T10:45:21;1.10;;;0.55;;
20065;SDS011;10193;48.884;9.182;2022-09-09T10:48:08;1.65;;;0.60;;
20065;SDS011;10193;48.884;9.182;2022-09-09T10:50:47;0.90;;;0.50;;
20065;SDS011;10193;48.884;9.182;2022-09-09T10:53:21;1.77;;;0.68;;
20065;SDS011;10193;48.884;9.182;2022-09-09T10:55:57;1.02;;;0.60;;
20065;SDS011;10193;48.884;9.182;2022-09-09T10:58:28;1.83;;;0.68;;
20065;SDS011;10193;48.884;9.182;2022-09-09T11:01:01;0.80;;;0.40;;
20065;SDS011;10193;48.884;9.182;2022-09-09T11:03:32;0.50;;;0.50;;
20065;SDS011;10193;48.884;9.182;2022-09-09T11:06:05;0.93;;;0.50;;
20065;SDS011;10193;48.884;9.182;2022-09-09T11:08:39;1.45;;;0.82;;
20065;SDS011;10193;48.884;9.182;2022-09-09T11:11:06;1.75;;;0.55;;
20065;SDS011;10193;48.884;9.182;2022-09-09T11:13:39;1.13;;;0.65;;
20065;SDS011;10193;48.884;9.182;2022-09-09T11:16:14;2.72;;;0.70;;
20065;SDS011;10193;48.884;9.182;2022-09-09T11:18:47;0.98;;;0.60;;
20065;SDS011;10193;48.884;9.182;2022-09-09T11:21:16;0.50;;;0.50;;
20065;SDS011;10193;48.884;9.182;2022-09-09T11:23:49;3.50;;;0.90;;
20065;SDS011;10193;48.884;9.182;2022-09-09T11:26:22;1.83;;;0.80;;
20065;SDS011;10193;48.884;9.182;2022-09-09T11:28:59;0.70;;;0.50;;
20065;SDS011;10193;48.884;9.182;2022-09-09T11:31:52;0.73;;;0.50;;
20065;SDS011;10193;48.884;9.182;2022-09-09T11:34:34;1.45;;;0.70;;
20065;SDS011;10193;48.884;9.182;2022-09-09T11:37:17;0.85;;;0.50;;
20065;SDS011;10193;48.884;9.182;2022-09-09T11:42:47;1.05;;;0.52;;
20065;SDS011;10193;48.884;9.182;2022-09-09T11:45:23;1.40;;;0.85;;
20065;SDS011;10193;48.884;9.182;2022-09-09T11:47:54;0.55;;;0.28;;
20065;SDS011;10193;48.884;9.182;2022-09-09T11:50:29;0.63;;;0.50;;
20065;SDS011;10193;48.884;9.182;2022-09-09T11:53:05;0.57;;;0.30;;
20065;SDS011;10193;48.884;9.182;2022-09-09T11:55:46;0.43;;;0.30;;
20065;SDS011;10193;48.884;9.182;2022-09-09T11:58:16;0.45;;;0.30;;
20065;SDS011;10193;48.884;9.182;2022-09-09T12:00:45;0.45;;;0.30;;
20065;SDS011;10193;48.884;9.182;2022-09-09T12:06:08;0.75;;;0.32;;
20065;SDS011;10193;48.884;9.182;2022-09-09T12:08:39;0.47;;;0.35;;
20065;SDS011;10193;48.884;9.182;2022-09-09T12:11:11;0.52;;;0.43;;
20065;SDS011;10193;48.884;9.182;2022-09-09T12:13:51;0.68;;;0.30;;
20065;SDS011;10193;48.884;9.182;2022-09-09T12:16:27;0.20;;;0.20;;
20065;SDS011;10193;48.884;9.182;2022-09-09T12:19:03;1.00;;;0.50;;
20065;SDS011;10193;48.884;9.182;2022-09-09T12:21:33;0.40;;;0.35;;
20065;SDS011;10193;48.884;9.182;2022-09-09T12:24:04;0.28;;;0.28;;
20065;SDS011;10193;48.884;9.182;2022-09-09T12:26:37;0.50;;;0.40;;
20065;SDS011;10193;48.884;9.182;2022-09-09T12:29:12;0.30;;;0.30;;
20065;SDS011;10193;48.884;9.182;2022-09-09T12:31:48;0.28;;;0.28;;
20065;SDS011;10193;48.884;9.182;2022-09-09T12:34:23;0.40;;;0.40;;
20065;SDS011;10193;48.884;9.182;2022-09-09T12:37:02;0.60;;;0.40;;
20065;SDS011;10193;48.884;9.182;2022-09-09T12:39:33;0.30;;;0.30;;
20065;SDS011;10193;48.884;9.182;2022-09-09T12:42:05;0.55;;;0.55;;
20065;SDS011;10193;48.884;9.182;2022-09-09T12:44:49;0.50;;;0.50;;
20065;SDS011;10193;48.884;9.182;2022-09-09T12:47:17;0.43;;;0.40;;
20065;SDS011;10193;48.884;9.182;2022-09-09T12:49:46;0.73;;;0.40;;
20065;SDS011;10193;48.884;9.182;2022-09-09T12:52:16;0.45;;;0.30;;
20065;SDS011;10193;48.884;9.182;2022-09-09T12:54:48;0.82;;;0.35;;
20065;SDS011;10193;48.884;9.182;2022-09-09T12:57:20;0.98;;;0.40;;
20065;SDS011;10193;48.884;9.182;2022-09-09T12:59:50;0.30;;;0.30;;
20065;SDS011;10193;48.884;9.182;2022-09-09T13:02:19;0.22;;;0.20;;
20065;SDS011;10193;48.884;9.182;2022-09-09T13:04:47;0.35;;;0.30;;
20065;SDS011;10193;48.884;9.182;2022-09-09T13:07:16;1.15;;;0.30;;
20065;SDS011;10193;48.884;9.182;2022-09-09T13:09:44;0.40;;;0.40;;
20065;SDS011;10193;48.884;9.182;2022-09-09T13:12:13;0.30;;;0.30;;
20065;SDS011;10193;48.884;9.182;2022-09-09T13:14:44;0.40;;;0.35;;
20065;SDS011;10193;48.884;9.182;2022-09-09T13:17:18;0.30;;;0.30;;
20065;SDS011;10193;48.884;9.182;2022-09-09T13:19:47;0.93;;;0.50;;
20065;SDS011;10193;48.884;9.182;2022-09-09T13:22:20;1.33;;;0.70;;
20065;SDS011;10193;48.884;9.182;2022-09-09T13:24:58;0.90;;;0.50;;
20065;SDS011;10193;48.884;9.182;2022-09-09T13:27:30;0.68;;;0.50;;
20065;SDS011;10193;48.884;9.182;2022-09-09T13:30:00;1.05;;;0.40;;
20065;SDS011;10193;48.884;9.182;2022-09-09T13:32:27;0.43;;;0.40;;
20065;SDS011;10193;48.884;9.182;2022-09-09T13:34:57;1.17;;;0.40;;
20065;SDS011;10193;48.884;9.182;2022-09-09T13:37:26;0.28;;;0.25;;
20065;SDS011;10193;48.884;9.182;2022-09-09T13:39:58;1.75;;;0.70;;
20065;SDS011;10193;48.884;9.182;2022-09-09T13:42:25;0.70;;;0.40;;
20065;SDS011;10193;48.884;9.182;2022-09-09T13:44:53;0.60;;;0.47;;
20065;SDS011;10193;48.884;9.182;2022-09-09T13:47:26;0.80;;;0.43;;
20065;SDS011;10193;48.884;9.182;2022-09-09T13:49:56;0.85;;;0.40;;
20065;SDS011;10193;48.884;9.182;2022-09-09T13:52:23;0.63;;;0.35;;
20065;SDS011;10193;48.884;9.182;2022-09-09T13:54:51;0.40;;;0.40;;
20065;SDS011;10193;48.884;9.182;2022-09-09T13:57:19;0.70;;;0.40;;
20065;SDS011;10193;48.884;9.182;2022-09-09T13:59:48;0.40;;;0.40;;
20065;SDS011;10193;48.884;9.182;2022-09-09T14:02:15;0.40;;;0.40;;
20065;SDS011;10193;48.884;9.182;2022-09-09T14:04:44;0.68;;;0.40;;
20065;SDS011;10193;48.884;9.182;2022-09-09T14:07:11;0.43;;;0.20;;
20065;SDS011;10193;48.884;9.182;2022-09-09T14:09:39;0.38;;;0.30;;
20065;SDS011;10193;48.884;9.182;2022-09-09T14:12:08;1.38;;;0.50;;
20065;SDS011;10193;48.884;9.182;2022-09-09T14:14:36;0.45;;;0.43;;
20065;SDS011;10193;48.884;9.182;2022-09-09T14:17:03;0.73;;;0.50;;
20065;SDS011;10193;48.884;9.182;2022-09-09T14:19:30;0.30;;;0.30;;
20065;SDS011;10193;48.884;9.182;2022-09-09T14:21:58;0.73;;;0.40;;
20065;SDS011;10193;48.884;9.182;2022-09-09T14:24:26;0.57;;;0.40;;
20065;SDS011;10193;48.884;9.182;2022-09-09T14:26:53;0.85;;;0.40;;
20065;SDS011;10193;48.884;9.182;2022-09-09T14:29:19;0.85;;;0.30;;
20065;SDS011;10193;48.884;9.182;2022-09-09T14:31:46;1.23;;;0.45;;
20065;SDS011;10193;48.884;9.182;2022-09-09T14:34:13;0.47;;;0.30;;
20065;SDS011;10193;48.884;9.182;2022-09-09T14:36:40;0.38;;;0.38;;
20065;SDS011;10193;48.884;9.182;2022-09-09T14:39:08;0.38;;;0.28;;
20065;SDS011;10193;48.884;9.182;2022-09-09T14:41:35;0.50;;;0.30;;
20065;SDS011;10193;48.884;9.182;2022-09-09T14:44:01;0.60;;;0.50;;
20065;SDS011;10193;48.884;9.182;2022-09-09T14:46:28;0.77;;;0.50;;
20065;SDS011;10193;48.884;9.182;2022-09-09T14:48:56;0.43;;;0.30;;
20065;SDS011;10193;48.884;9.182;2022-09-09T14:51:23;0.60;;;0.50;;
20065;SDS011;10193;48.884;9.182;2022-09-09T14:53:53;0.82;;;0.28;;
20065;SDS011;10193;48.884;9.182;2022-09-09T14:56:22;0.50;;;0.40;;
20065;SDS011;10193;48.884;9.182;2022-09-09T14:58:52;0.80;;;0.38;;
20065;SDS011;10193;48.884;9.182;2022-09-09T15:01:20;2.15;;;0.55;;
20065;SDS011;10193;48.884;9.182;2022-09-09T15:03:51;1.27;;;0.52;;
20065;SDS011;10193;48.884;9.182;2022-09-09T15:06:19;0.60;;;0.60;;
20065;SDS011;10193;48.884;9.182;2022-09-09T15:08:47;0.95;;;0.40;;
20065;SDS011;10193;48.884;9.182;2022-09-09T15:11:14;0.93;;;0.52;;
20065;SDS011;10193;48.884;9.182;2022-09-09T15:13:42;0.65;;;0.40;;
20065;SDS011;10193;48.884;9.182;2022-09-09T15:16:10;0.30;;;0.25;;